createdAt,value
2022-12-28T00:01:26.476Z,100.00
2022-12-28T00:03:54.090Z,100.00
2022-12-28T00:06:22.781Z,100.00
2022-12-28T00:08:51.643Z,100.00
2022-12-28T00:11:30.830Z,100.00
2022-12-28T00:14:00.290Z,100.00
2022-12-28T00:16:28.756Z,100.00
2022-12-28T00:18:56.440Z,100.00
2022-12-28T00:21:22.964Z,100.00
2022-12-28T00:23:50.496Z,100.00
2022-12-28T00:26:17.498Z,100.00
2022-12-28T00:28:44.032Z,100.00
2022-12-28T00:31:11.724Z,100.00
2022-12-28T00:33:38.332Z,100.00
2022-12-28T00:36:05.375Z,100.00
2022-12-28T00:38:36.754Z,100.00
2022-12-28T00:41:03.693Z,100.00
2022-12-28T00:43:30.823Z,100.00
2022-12-28T00:45:59.038Z,100.00
2022-12-28T00:48:26.729Z,100.00
2022-12-28T00:51:00.167Z,100.00
2022-12-28T00:53:26.563Z,100.00
2022-12-28T00:55:52.941Z,100.00
2022-12-28T00:58:19.316Z,100.00
2022-12-28T01:00:45.782Z,100.00
2022-12-28T01:03:12.192Z,100.00
2022-12-28T01:05:39.412Z,100.00
2022-12-28T01:08:08.068Z,100.00
2022-12-28T01:10:34.442Z,100.00
2022-12-28T01:13:00.837Z,100.00
2022-12-28T01:15:27.256Z,100.00
2022-12-28T01:17:53.726Z,100.00
2022-12-28T01:20:20.123Z,100.00
2022-12-28T01:22:47.923Z,100.00
2022-12-28T01:25:14.492Z,100.00
2022-12-28T01:27:40.895Z,100.00
2022-12-28T01:30:08.490Z,100.00
2022-12-28T01:32:37.551Z,100.00
2022-12-28T01:35:04.701Z,100.00
2022-12-28T01:37:34.494Z,100.00
2022-12-28T01:40:01.538Z,100.00
2022-12-28T01:42:27.992Z,100.00
2022-12-28T01:44:54.527Z,100.00
2022-12-28T01:47:25.440Z,100.00
2022-12-28T01:50:02.125Z,100.00
2022-12-28T01:52:33.325Z,100.00
2022-12-28T01:55:05.976Z,100.00
2022-12-28T01:57:38.871Z,100.00
2022-12-28T02:00:10.542Z,100.00
2022-12-28T02:02:43.189Z,100.00
2022-12-28T02:05:09.973Z,100.00
2022-12-28T02:07:43.297Z,100.00
2022-12-28T02:10:44.187Z,100.00
2022-12-28T02:12:59.320Z,100.00
2022-12-28T02:15:27.308Z,100.00
2022-12-28T02:17:53.822Z,100.00
2022-12-28T02:20:20.639Z,100.00
2022-12-28T02:23:07.961Z,100.00
2022-12-28T02:26:10.560Z,100.00
2022-12-28T02:29:09.514Z,100.00
2022-12-28T02:31:42.713Z,100.00
2022-12-28T02:34:17.101Z,100.00
2022-12-28T02:36:50.469Z,100.00
2022-12-28T02:39:22.477Z,100.00
2022-12-28T02:41:50.128Z,100.00
2022-12-28T02:44:38.033Z,100.00
2022-12-28T02:47:22.992Z,100.00
2022-12-28T02:50:07.738Z,100.00
2022-12-28T02:52:57.475Z,100.00
2022-12-28T02:55:56.214Z,100.00
2022-12-28T02:58:57.825Z,100.00
2022-12-28T03:01:46.390Z,100.00
2022-12-28T03:04:18.717Z,100.00
2022-12-28T03:07:13.470Z,100.00
2022-12-28T03:09:47.448Z,100.00
2022-12-28T03:12:18.931Z,100.00
2022-12-28T03:14:48.643Z,100.00
2022-12-28T03:17:37.107Z,100.00
2022-12-28T03:20:26.581Z,100.00
2022-12-28T03:23:15.112Z,100.00
2022-12-28T03:26:03.056Z,100.00
2022-12-28T03:28:57.681Z,100.00
2022-12-28T03:31:26.855Z,100.00
2022-12-28T03:34:06.081Z,100.00
2022-12-28T03:36:46.267Z,100.00
2022-12-28T03:39:22.715Z,100.00
2022-12-28T03:42:12.713Z,100.00
2022-12-28T03:44:42.582Z,100.00
2022-12-28T03:47:12.023Z,100.00
2022-12-28T03:49:39.974Z,100.00
2022-12-28T03:52:08.473Z,100.00
2022-12-28T03:54:35.284Z,100.00
2022-12-28T03:57:01.783Z,100.00
2022-12-28T03:59:32.561Z,100.00
2022-12-28T04:02:01.049Z,100.00
2022-12-28T04:04:29.551Z,100.00
2022-12-28T04:06:56.588Z,100.00
2022-12-28T04:09:23.052Z,100.00
2022-12-28T04:11:49.511Z,100.00
2022-12-28T04:14:23.387Z,100.00
2022-12-28T04:16:49.851Z,100.00
2022-12-28T04:19:18.131Z,100.00
2022-12-28T04:21:45.303Z,100.00
2022-12-28T04:24:12.395Z,100.00
2022-12-28T04:26:40.049Z,100.00
2022-12-28T04:29:08.264Z,100.00
2022-12-28T04:31:53.411Z,100.00
2022-12-28T04:34:21.130Z,100.00
2022-12-28T04:36:55.382Z,100.00
2022-12-28T04:39:23.248Z,100.00
2022-12-28T04:41:49.754Z,100.00
2022-12-28T04:44:16.126Z,100.00
2022-12-28T04:46:43.204Z,100.00
2022-12-28T04:49:09.631Z,100.00
2022-12-28T04:51:36.030Z,100.00
2022-12-28T04:54:02.491Z,100.00
2022-12-28T04:56:29.554Z,100.00
2022-12-28T04:58:57.129Z,100.00
2022-12-28T05:01:23.727Z,100.00
2022-12-28T05:03:55.730Z,100.00
2022-12-28T05:06:24.890Z,100.00
2022-12-28T05:08:51.546Z,100.00
2022-12-28T05:11:19.853Z,100.00
2022-12-28T05:13:47.570Z,100.00
2022-12-28T05:16:16.535Z,100.00
2022-12-28T05:18:43.989Z,100.00
2022-12-28T05:21:14.576Z,100.00
2022-12-28T05:23:41.145Z,100.00
2022-12-28T05:26:11.292Z,100.00
2022-12-28T05:28:38.266Z,100.00
2022-12-28T05:31:07.066Z,100.00
2022-12-28T05:33:35.037Z,100.00
2022-12-28T05:36:03.643Z,100.00
2022-12-28T05:38:30.115Z,100.00
2022-12-28T05:40:56.467Z,100.00
2022-12-28T05:43:22.888Z,100.00
2022-12-28T05:45:49.233Z,100.00
2022-12-28T05:48:16.365Z,100.00
2022-12-28T05:50:42.818Z,100.00
2022-12-28T05:53:09.263Z,100.00
2022-12-28T05:55:35.692Z,100.00
2022-12-28T05:58:02.046Z,100.00
2022-12-28T06:00:28.452Z,100.00
2022-12-28T06:02:55.002Z,100.00
2022-12-28T06:05:22.130Z,100.00
2022-12-28T06:07:51.415Z,100.00
2022-12-28T06:10:17.936Z,100.00
2022-12-28T06:12:44.355Z,100.00
2022-12-28T06:15:11.156Z,100.00
2022-12-28T06:17:37.605Z,100.00
2022-12-28T06:20:04.866Z,100.00
2022-12-28T06:22:31.904Z,100.00
2022-12-28T06:24:58.375Z,100.00
2022-12-28T06:27:24.869Z,100.00
2022-12-28T06:29:51.318Z,100.00
2022-12-28T06:32:17.713Z,100.00
2022-12-28T06:34:44.094Z,100.00
2022-12-28T06:37:10.480Z,100.00
2022-12-28T06:39:37.517Z,100.00
2022-12-28T06:42:04.030Z,100.00
2022-12-28T06:44:30.498Z,100.00
2022-12-28T06:46:56.863Z,100.00
2022-12-28T06:49:23.246Z,100.00
2022-12-28T06:51:49.605Z,100.00
2022-12-28T06:54:16.098Z,100.00
2022-12-28T06:56:43.185Z,100.00
2022-12-28T06:59:09.629Z,100.00
2022-12-28T07:01:38.532Z,100.00
2022-12-28T07:04:07.097Z,100.00
2022-12-28T07:06:36.211Z,100.00
2022-12-28T07:09:04.370Z,100.00
2022-12-28T07:11:30.848Z,100.00
2022-12-28T07:13:57.969Z,100.00
2022-12-28T07:16:27.685Z,100.00
2022-12-28T07:18:54.952Z,100.00
2022-12-28T07:21:23.423Z,100.00
2022-12-28T07:23:51.144Z,100.00
2022-12-28T07:26:20.046Z,100.00
2022-12-28T07:28:47.959Z,100.00
2022-12-28T07:31:17.910Z,100.00
2022-12-28T07:33:45.581Z,100.00
2022-12-28T07:36:15.424Z,100.00
2022-12-28T07:38:42.148Z,100.00
2022-12-28T07:41:11.538Z,100.00
2022-12-28T07:43:38.364Z,100.00
2022-12-28T07:46:07.510Z,100.00
2022-12-28T07:48:35.617Z,100.00
2022-12-28T07:51:07.520Z,100.00
2022-12-28T07:53:35.947Z,100.00
2022-12-28T07:56:03.013Z,100.00
2022-12-28T07:58:29.494Z,100.00
2022-12-28T08:01:03.624Z,100.00
2022-12-28T08:03:30.058Z,100.00
2022-12-28T08:06:02.479Z,100.00
2022-12-28T08:08:28.872Z,100.00
2022-12-28T08:10:55.355Z,100.00
2022-12-28T08:13:21.835Z,100.00
2022-12-28T08:15:53.958Z,100.00
2022-12-28T08:18:20.413Z,100.00
2022-12-28T08:20:46.799Z,100.00
2022-12-28T08:23:13.854Z,100.00
2022-12-28T08:25:40.239Z,100.00
2022-12-28T08:28:06.646Z,100.00
2022-12-28T08:30:33.061Z,100.00
2022-12-28T08:32:59.452Z,100.00
2022-12-28T08:35:26.154Z,100.00
2022-12-28T08:37:54.663Z,100.00
2022-12-28T08:40:26.822Z,100.00
2022-12-28T08:42:56.509Z,100.00
2022-12-28T08:45:22.942Z,100.00
2022-12-28T08:47:49.375Z,100.00
2022-12-28T08:50:19.905Z,100.00
2022-12-28T08:52:46.868Z,100.00
2022-12-28T08:55:13.314Z,100.00
2022-12-28T08:57:40.368Z,100.00
2022-12-28T09:00:08.320Z,100.00
2022-12-28T09:02:35.050Z,100.00
2022-12-28T09:05:01.623Z,100.00
2022-12-28T09:07:28.108Z,100.00
2022-12-28T09:09:54.634Z,100.00
2022-12-28T09:12:21.018Z,100.00
2022-12-28T09:14:48.046Z,100.00
2022-12-28T09:17:14.408Z,100.00
2022-12-28T09:19:40.776Z,100.00
2022-12-28T09:22:07.305Z,100.00
2022-12-28T09:24:34.024Z,100.00
2022-12-28T09:27:00.571Z,100.00
2022-12-28T09:29:27.149Z,100.00
2022-12-28T09:31:54.255Z,100.00
2022-12-28T09:34:35.706Z,100.00
2022-12-28T09:37:03.188Z,100.00
2022-12-28T09:39:29.928Z,100.00
2022-12-28T09:42:00.365Z,100.00
2022-12-28T09:44:56.676Z,100.00
2022-12-28T09:47:30.144Z,100.00
2022-12-28T09:50:06.641Z,100.00
2022-12-28T09:52:36.001Z,100.00
2022-12-28T09:55:10.625Z,100.00
2022-12-28T09:57:40.876Z,100.00
2022-12-28T10:00:14.440Z,100.00
2022-12-28T10:02:47.622Z,100.00
2022-12-28T10:05:14.355Z,100.00
2022-12-28T10:07:40.770Z,100.00
2022-12-28T10:10:07.666Z,100.00
2022-12-28T10:12:34.603Z,100.00
2022-12-28T10:15:01.008Z,100.00
2022-12-28T10:17:29.643Z,100.00
2022-12-28T10:19:58.607Z,100.00
2022-12-28T10:22:31.887Z,100.00
2022-12-28T10:24:58.268Z,100.00
2022-12-28T10:27:29.049Z,100.00
2022-12-28T10:29:55.640Z,100.00
2022-12-28T10:32:22.229Z,100.00
2022-12-28T10:34:59.989Z,100.00
2022-12-28T10:37:29.831Z,100.00
2022-12-28T10:39:59.639Z,100.00
2022-12-28T10:42:29.553Z,100.00
2022-12-28T10:45:01.927Z,100.00
2022-12-28T10:47:34.680Z,100.00
2022-12-28T10:50:35.867Z,100.00
2022-12-28T10:52:57.042Z,100.00
2022-12-28T10:55:28.881Z,100.00
2022-12-28T10:58:28.125Z,100.00
2022-12-28T11:00:53.618Z,100.00
2022-12-28T11:03:24.744Z,100.00
2022-12-28T11:06:09.612Z,100.00
2022-12-28T11:08:36.162Z,100.00
2022-12-28T11:11:02.545Z,100.00
2022-12-28T11:13:29.020Z,100.00
2022-12-28T11:15:55.497Z,100.00
2022-12-28T11:18:22.058Z,100.00
2022-12-28T11:20:50.831Z,100.00
2022-12-28T11:23:20.396Z,100.00
2022-12-28T11:25:47.110Z,100.00
2022-12-28T11:28:16.677Z,100.00
2022-12-28T11:30:43.513Z,100.00
2022-12-28T11:33:25.162Z,100.00
2022-12-28T11:35:57.521Z,100.00
2022-12-28T11:38:40.943Z,100.00
2022-12-28T11:41:10.653Z,100.00
2022-12-28T11:43:55.677Z,100.00
2022-12-28T11:46:39.829Z,100.00
2022-12-28T11:49:26.023Z,100.00
2022-12-28T11:52:26.821Z,100.00
2022-12-28T11:54:55.780Z,100.00
2022-12-28T11:57:35.548Z,100.00
2022-12-28T12:00:38.771Z,100.00
2022-12-28T12:03:05.333Z,100.00
2022-12-28T12:05:48.344Z,100.00
2022-12-28T12:08:39.626Z,100.00
2022-12-28T12:11:32.488Z,100.00
2022-12-28T12:14:01.321Z,100.00
2022-12-28T12:16:35.192Z,100.00
2022-12-28T12:19:06.243Z,100.00
2022-12-28T12:21:36.512Z,100.00
2022-12-28T12:24:17.661Z,100.00
2022-12-28T12:26:50.051Z,100.00
2022-12-28T12:29:22.102Z,100.00
2022-12-28T12:31:54.907Z,100.00
2022-12-28T12:34:26.914Z,100.00
2022-12-28T12:37:28.284Z,100.00
2022-12-28T12:40:19.096Z,100.00
2022-12-28T12:43:04.428Z,100.00
2022-12-28T12:45:43.208Z,100.00
2022-12-28T12:48:24.001Z,100.00
2022-12-28T12:51:04.417Z,100.00
2022-12-28T12:53:55.897Z,100.00
2022-12-28T12:56:35.645Z,100.00
2022-12-28T12:59:18.247Z,100.00
2022-12-28T13:01:53.258Z,100.00
2022-12-28T13:04:23.559Z,100.00
2022-12-28T13:06:55.374Z,100.00
2022-12-28T13:09:25.371Z,100.00
2022-12-28T13:11:52.267Z,100.00
2022-12-28T13:14:21.389Z,100.00
2022-12-28T13:16:53.000Z,100.00
2022-12-28T13:19:22.461Z,100.00
2022-12-28T13:21:50.281Z,100.00
2022-12-28T13:24:21.752Z,100.00
2022-12-28T13:26:49.762Z,100.00
2022-12-28T13:29:20.127Z,99.87
2022-12-28T13:31:49.185Z,92.85
2022-12-28T13:34:18.628Z,93.70
2022-12-28T13:36:49.887Z,91.17
2022-12-28T13:39:18.763Z,88.97
2022-12-28T13:41:48.862Z,89.43
2022-12-28T13:44:32.381Z,93.70
2022-12-28T13:47:03.951Z,94.91
2022-12-28T13:49:36.492Z,99.74
2022-12-28T13:52:07.224Z,98.16
2022-12-28T13:54:33.868Z,100.00
2022-12-28T13:57:36.005Z,100.00
2022-12-28T13:59:49.464Z,100.00
2022-12-28T14:02:19.723Z,100.00
2022-12-28T14:04:53.607Z,100.00
2022-12-28T14:07:24.316Z,100.00
2022-12-28T14:09:51.521Z,100.00
2022-12-28T14:12:18.517Z,100.00
2022-12-28T14:14:48.243Z,100.00
2022-12-28T14:17:17.691Z,100.00
2022-12-28T14:19:45.412Z,100.00
2022-12-28T14:22:25.593Z,100.00
2022-12-28T14:24:59.721Z,100.00
2022-12-28T14:27:26.462Z,100.00
2022-12-28T14:29:54.872Z,100.00
2022-12-28T14:32:21.785Z,100.00
2022-12-28T14:34:55.662Z,100.00
2022-12-28T14:37:27.432Z,100.00
2022-12-28T14:39:59.744Z,100.00
2022-12-28T14:42:27.258Z,100.00
2022-12-28T14:47:44.421Z,100.00
2022-12-28T14:50:17.612Z,100.00
2022-12-28T14:52:46.391Z,100.00
2022-12-28T14:55:24.334Z,100.00
2022-12-28T14:57:55.203Z,100.00
2022-12-28T15:00:25.768Z,100.00
2022-12-28T15:02:53.083Z,100.00
2022-12-28T15:05:41.303Z,100.00
2022-12-28T15:08:08.776Z,100.00
2022-12-28T15:10:39.717Z,100.00
2022-12-28T15:13:06.428Z,100.00
2022-12-28T15:15:34.045Z,100.00
2022-12-28T15:18:00.581Z,100.00
2022-12-28T15:20:27.052Z,100.00
2022-12-28T15:22:53.397Z,100.00
2022-12-28T15:25:19.803Z,100.00
2022-12-28T15:27:49.392Z,100.00
2022-12-28T15:30:20.557Z,100.00
2022-12-28T15:32:51.373Z,100.00
2022-12-28T15:35:18.211Z,100.00
2022-12-28T15:37:44.677Z,100.00
2022-12-28T15:40:11.605Z,100.00
2022-12-28T15:42:40.637Z,100.00
2022-12-28T15:45:08.670Z,100.00
2022-12-28T15:47:35.275Z,100.00
2022-12-28T15:50:02.541Z,100.00
2022-12-28T15:52:30.761Z,100.00
2022-12-28T15:54:57.807Z,100.00
2022-12-28T15:57:24.536Z,100.00
2022-12-28T15:59:51.157Z,100.00
2022-12-28T16:02:18.750Z,100.00
2022-12-28T16:04:46.211Z,100.00
2022-12-28T16:07:13.475Z,100.00
2022-12-28T16:09:40.000Z,100.00
2022-12-28T16:12:06.855Z,100.00
2022-12-28T16:14:33.671Z,100.00
2022-12-28T16:17:00.314Z,100.00
2022-12-28T16:19:26.880Z,100.00
2022-12-28T16:21:53.380Z,100.00
2022-12-28T16:24:20.891Z,100.00
2022-12-28T16:26:49.064Z,100.00
2022-12-28T16:29:15.520Z,100.00
2022-12-28T16:31:42.528Z,100.00
2022-12-28T16:34:12.283Z,100.00
2022-12-28T16:36:42.579Z,100.00
2022-12-28T16:39:13.109Z,100.00
2022-12-28T16:41:40.606Z,100.00
2022-12-28T16:44:12.466Z,100.00
2022-12-28T16:46:39.476Z,100.00
2022-12-28T16:49:06.280Z,100.00
2022-12-28T16:51:34.572Z,100.00
2022-12-28T16:54:01.078Z,100.00
2022-12-28T16:56:27.693Z,100.00
2022-12-28T16:58:58.898Z,100.00
2022-12-28T17:01:25.946Z,100.00
2022-12-28T17:04:03.777Z,100.00
2022-12-28T17:06:31.457Z,100.00
2022-12-28T17:09:00.862Z,100.00
2022-12-28T17:11:27.849Z,100.00
2022-12-28T17:14:03.183Z,100.00
2022-12-28T17:16:30.949Z,100.00
2022-12-28T17:18:58.793Z,100.00
2022-12-28T17:21:25.933Z,100.00
2022-12-28T17:23:52.439Z,100.00
2022-12-28T17:26:19.055Z,100.00
2022-12-28T17:28:45.483Z,100.00
2022-12-28T17:31:15.537Z,100.00
2022-12-28T17:33:45.800Z,100.00
2022-12-28T17:36:12.574Z,100.00
2022-12-28T17:38:39.450Z,100.00
2022-12-28T17:41:13.961Z,100.00
2022-12-28T17:43:44.543Z,100.00
2022-12-28T17:46:11.739Z,100.00
2022-12-28T17:48:38.367Z,100.00
2022-12-28T17:51:10.778Z,100.00
2022-12-28T17:53:38.473Z,100.00
2022-12-28T17:56:07.960Z,100.00
2022-12-28T17:58:34.918Z,100.00
2022-12-28T18:01:02.015Z,100.00
2022-12-28T18:03:34.090Z,100.00
2022-12-28T18:06:01.569Z,100.00
2022-12-28T18:08:28.998Z,100.00
2022-12-28T18:10:56.196Z,100.00
2022-12-28T18:13:23.341Z,100.00
2022-12-28T18:15:49.941Z,100.00
2022-12-28T18:18:17.772Z,100.00
2022-12-28T18:20:54.562Z,100.00
2022-12-28T18:23:21.462Z,100.00
2022-12-28T18:25:47.893Z,100.00
2022-12-28T18:28:15.045Z,100.00
2022-12-28T18:30:41.754Z,100.00
2022-12-28T18:33:08.638Z,100.00
2022-12-28T18:35:35.346Z,100.00
2022-12-28T18:38:02.575Z,100.00
2022-12-28T18:40:29.116Z,100.00
2022-12-28T18:42:56.632Z,100.00
2022-12-28T18:45:23.115Z,100.00
2022-12-28T18:47:49.555Z,100.00
2022-12-28T18:50:15.965Z,100.00
2022-12-28T18:52:44.430Z,100.00
2022-12-28T18:55:11.477Z,100.00
2022-12-28T18:57:37.945Z,100.00
2022-12-28T19:00:05.698Z,100.00
2022-12-28T19:02:32.913Z,100.00
2022-12-28T19:04:59.674Z,100.00
2022-12-28T19:07:26.310Z,100.00
2022-12-28T19:10:13.633Z,100.00
2022-12-28T19:12:42.060Z,100.00
2022-12-28T19:15:09.849Z,100.00
2022-12-28T19:17:36.521Z,100.00
2022-12-28T19:20:03.831Z,100.00
2022-12-28T19:22:30.297Z,100.00
2022-12-28T19:24:56.700Z,100.00
2022-12-28T19:27:23.169Z,100.00
2022-12-28T19:29:50.260Z,100.00
2022-12-28T19:32:16.733Z,100.00
2022-12-28T19:34:43.258Z,100.00
2022-12-28T19:37:09.792Z,100.00
2022-12-28T19:39:36.305Z,100.00
2022-12-28T19:42:03.528Z,100.00
2022-12-28T19:44:29.934Z,100.00
2022-12-28T19:46:58.118Z,100.00
2022-12-28T19:49:24.726Z,100.00
2022-12-28T19:51:51.358Z,100.00
2022-12-28T19:54:17.817Z,100.00
2022-12-28T19:56:44.287Z,100.00
2022-12-28T19:59:10.718Z,100.00
2022-12-28T20:01:38.271Z,100.00
2022-12-28T20:04:12.909Z,100.00
2022-12-28T20:06:41.801Z,100.00
2022-12-28T20:09:08.350Z,100.00
2022-12-28T20:11:35.278Z,100.00
2022-12-28T20:14:03.779Z,100.00
2022-12-28T20:16:32.723Z,100.00
2022-12-28T20:19:00.793Z,100.00
2022-12-28T20:21:27.883Z,100.00
2022-12-28T20:23:54.746Z,100.00
2022-12-28T20:26:22.351Z,100.00
2022-12-28T20:28:49.430Z,100.00
2022-12-28T20:31:16.431Z,100.00
2022-12-28T20:33:43.089Z,100.00
2022-12-28T20:36:12.120Z,100.00
2022-12-28T20:38:39.323Z,100.00
2022-12-28T20:41:08.496Z,100.00
2022-12-28T20:43:35.617Z,100.00
2022-12-28T20:46:02.439Z,100.00
2022-12-28T20:48:31.815Z,100.00
2022-12-28T20:51:00.516Z,100.00
2022-12-28T20:53:27.542Z,100.00
2022-12-28T20:56:04.543Z,100.00
2022-12-28T20:58:30.942Z,100.00
2022-12-28T21:01:03.279Z,100.00
2022-12-28T21:03:29.935Z,100.00
2022-12-28T21:05:56.503Z,100.00
2022-12-28T21:08:28.827Z,100.00
2022-12-28T21:10:58.379Z,100.00
2022-12-28T21:13:25.108Z,100.00
2022-12-28T21:15:51.883Z,100.00
2022-12-28T21:18:18.977Z,100.00
2022-12-28T21:20:45.991Z,100.00
2022-12-28T21:23:12.514Z,100.00
2022-12-28T21:25:39.790Z,100.00
2022-12-28T21:28:07.357Z,100.00
2022-12-28T21:30:33.920Z,100.00
2022-12-28T21:33:00.327Z,100.00
2022-12-28T21:35:32.090Z,100.00
2022-12-28T21:38:01.048Z,100.00
2022-12-28T21:40:27.794Z,100.00
2022-12-28T21:42:54.354Z,100.00
2022-12-28T21:45:21.672Z,100.00
2022-12-28T21:47:48.689Z,100.00
2022-12-28T21:50:15.713Z,100.00
2022-12-28T21:52:44.073Z,100.00
2022-12-28T21:55:31.987Z,100.00
2022-12-28T21:57:59.865Z,100.00
2022-12-28T22:00:45.614Z,100.00
2022-12-28T22:03:30.224Z,100.00
2022-12-28T22:06:04.170Z,100.00
2022-12-28T22:08:49.416Z,100.00
2022-12-28T22:11:34.718Z,100.00
2022-12-28T22:14:01.309Z,100.00
2022-12-28T22:16:31.633Z,100.00
2022-12-28T22:19:02.751Z,100.00
2022-12-28T22:21:29.929Z,100.00
2022-12-28T22:23:56.335Z,100.00
2022-12-28T22:26:22.774Z,100.00
2022-12-28T22:28:49.287Z,100.00
2022-12-28T22:31:15.664Z,100.00
2022-12-28T22:33:42.709Z,100.00
2022-12-28T22:36:13.889Z,100.00
2022-12-28T22:38:40.484Z,100.00
2022-12-28T22:41:07.096Z,100.00
2022-12-28T22:43:33.968Z,100.00
2022-12-28T22:46:02.069Z,100.00
2022-12-28T22:48:28.869Z,100.00
2022-12-28T22:51:00.722Z,100.00
2022-12-28T22:53:27.087Z,100.00
2022-12-28T22:55:57.351Z,100.00
2022-12-28T22:58:23.828Z,100.00
2022-12-28T23:00:50.385Z,100.00
2022-12-28T23:03:16.826Z,100.00
2022-12-28T23:05:49.949Z,100.00
2022-12-28T23:08:17.115Z,100.00
2022-12-28T23:10:53.124Z,100.00
2022-12-28T23:13:19.700Z,100.00
2022-12-28T23:15:54.836Z,100.00
2022-12-28T23:18:39.243Z,100.00
2022-12-28T23:21:24.045Z,100.00
2022-12-28T23:24:09.399Z,100.00
2022-12-28T23:26:54.131Z,100.00
2022-12-28T23:29:24.298Z,100.00
2022-12-28T23:31:53.793Z,100.00
2022-12-28T23:34:20.207Z,100.00
2022-12-28T23:36:46.649Z,100.00
2022-12-28T23:39:13.723Z,100.00
2022-12-28T23:41:48.966Z,100.00
2022-12-28T23:44:15.856Z,100.00
2022-12-28T23:46:42.371Z,100.00
2022-12-28T23:49:09.035Z,100.00
2022-12-28T23:51:35.450Z,100.00
2022-12-28T23:54:01.944Z,100.00
2022-12-28T23:56:29.001Z,100.00
2022-12-28T23:58:55.389Z,100.00
